KPVW/PVW METAR and TAF weather

Enter ICAO airport designator
Station Type Date Time Source
KPVW METAR 2021/09/28 04:55 UTC NOAA

KPVW 280455Z AUTO 11011KT 10SM VCTS SCT055 BKN085 BKN110 15/15 A3002 RMK AO2 LTG DSNT E AND SE T01470146


Station Type Date Time Source
KPVW Decoded METAR 2021/09/28 04:55 UTC NOAA

Plainview, Hale County Airport, TX, United States (KPVW) 34-10-05N 101-43-02W
Sep 28, 2021 - 12:55 AM EDT / 2021.09.28 0455 UTC
Wind: from the ESE (110 degrees) at 13 MPH (11 KT):0
Visibility: 10 mile(s):0
Sky conditions: mostly cloudy
Weather: thunder in the vicinity; Lightning observed
Temperature: 58.5 F (14.7 C)
Dew Point: 58.3 F (14.6 C)
Relative Humidity: 99%
Pressure (altimeter): 30.02 in. Hg (1016 hPa)
ob: KPVW 280455Z AUTO 11011KT 10SM VCTS SCT055 BKN085 BKN110 15/15 A3002 RMK AO2 LTG DSNT E AND SE T01470146
cycle: 5

Station Type Date Time Source
KPVW TAF 2021/09/28 01:24 UTC NOAA

TAF
AMD KPVW 280121Z 2801/2824 15009KT P6SM VCTS SCT060CB BKN120
TEMPO 2802/2803 VRB20G40KT 3SM -TSRA BKN040CB
FM280400 17008KT P6SM SCT100
FM281800 22016KT P6SM FEW070

Example: see airport list